Ana Sayfa
METAR-TAF:

METAR-TAF

Havaalanları :

Fort Stockton-Pecos County Airport

Fort Stockton, Teksas, Amerika Birleşik Devletleri

Enlem: 30-54-43N, Boylam: 102-55-00W, yükseklik: 917 m

METAR: eksik

Saat: 10:34 (15:34 UTC)

Tahmin

Rapor saat 11:27 UTC de 4 saat ve 7 dakika önce yapıldı.
Ayın 24'si saat 12 UTC'den ayın 25'si saat 12 UTC'ye kadar geçerli Tahmin
Rüzgar doğudan 8 kt
Görüş mesafesi: 10 km
Açık gökyüzü
Ayın 25'si saat 0400 UTC'den
Rüzgar güney/güneydoğudan 6 kt
Görüş mesafesi: 10 km
Açık gökyüzü

TAF: KFST 241127Z 2412/2512 08008KT P6SM SKC FM250400 15006KT P6SM SKC

4.000'den fazla havaalanı için hava durumu gözlemleri ve tahminleri (METAR ve TAF raporları).

Kullanılabilir istasyonlar harita üzerinde sarı ve kırmızı noktalarla gösterilir.

İstasyonun adını görmek için fareyi noktanın üzerinde gezdirin.

Sonrasında hava gözlem ve tahminlerini görmek için tıklayın.

Haritayı değiştirmek için: yaklaştırmak için siyah artı işaretli yeşil düğmeye ve uzaklaştırmak için de eksi işaretli düğmeye hızla tıklayın; bitişik haritalar için yeşil okları kullanın.


METAR-TAF: